createdAt,value
2017-11-16T00:01:25.331Z,42.43
2017-11-16T00:03:53.309Z,42.31
2017-11-16T00:06:21.463Z,42.48
2017-11-16T00:08:49.441Z,42.23
2017-11-16T00:11:17.419Z,42.15
2017-11-16T00:13:45.395Z,42.09
2017-11-16T00:16:13.427Z,42.05
2017-11-16T00:18:41.397Z,41.97
2017-11-16T00:21:09.662Z,41.86
2017-11-16T00:23:37.652Z,41.89
2017-11-16T00:26:05.657Z,41.95
2017-11-16T00:28:33.665Z,42.03
2017-11-16T00:31:01.654Z,42.07
2017-11-16T00:33:29.625Z,42.09
2017-11-16T00:35:57.933Z,41.98
2017-11-16T00:48:09.434Z,42.50
2017-11-16T00:50:38.522Z,42.59
2017-11-16T00:53:07.740Z,42.47
2017-11-16T00:55:37.245Z,42.39
2017-11-16T00:58:06.418Z,42.29
2017-11-16T01:00:35.557Z,42.22
2017-11-16T01:03:04.699Z,42.21
2017-11-16T01:05:33.942Z,42.18
2017-11-16T01:08:03.291Z,42.14
2017-11-16T01:10:32.405Z,42.07
2017-11-16T01:13:01.756Z,42.08
2017-11-16T01:15:30.288Z,41.99
2017-11-16T01:17:59.418Z,41.94
2017-11-16T01:20:28.509Z,41.90
2017-11-16T01:22:57.513Z,41.83
2017-11-16T01:25:26.714Z,41.75
2017-11-16T01:27:57.310Z,41.72
2017-11-16T01:30:26.440Z,41.79
2017-11-16T01:32:55.516Z,41.84
2017-11-16T01:35:24.527Z,41.95
2017-11-16T01:37:53.720Z,41.96
2017-11-16T01:40:23.741Z,42.20
2017-11-16T01:42:53.255Z,42.23
2017-11-16T01:45:22.428Z,42.25
2017-11-16T01:47:51.549Z,42.18
2017-11-16T01:50:20.670Z,42.16
2017-11-16T01:52:49.935Z,42.11
2017-11-16T01:55:19.277Z,42.13
2017-11-16T01:57:48.408Z,42.14
2017-11-16T02:00:17.657Z,42.18
2017-11-16T02:02:50.938Z,42.20
2017-11-16T02:05:20.291Z,42.26
2017-11-16T02:07:49.443Z,42.21
2017-11-16T02:10:18.528Z,42.33
2017-11-16T02:12:47.543Z,42.43
2017-11-16T02:15:16.666Z,42.50
2017-11-16T02:17:46.255Z,42.56
2017-11-16T02:20:15.445Z,42.62
2017-11-16T02:22:44.596Z,42.67
2017-11-16T02:25:14.433Z,42.69
2017-11-16T02:27:43.636Z,42.70
2017-11-16T02:30:13.381Z,42.74
2017-11-16T02:32:42.529Z,42.84
2017-11-16T02:35:12.029Z,42.89
2017-11-16T02:37:41.620Z,42.90
2017-11-16T02:40:11.242Z,42.90
2017-11-16T02:42:40.435Z,42.90
2017-11-16T02:45:09.692Z,42.92
2017-11-16T02:47:39.275Z,42.91
2017-11-16T18:25:43.317Z,40.54
2017-11-16T18:29:24.808Z,39.76
2017-11-16T18:31:54.079Z,39.18
2017-11-16T18:34:24.275Z,38.57
2017-11-16T18:36:53.414Z,38.00
2017-11-16T18:40:31.591Z,37.48
2017-11-16T18:43:00.564Z,37.17
2017-11-16T18:49:01.770Z,36.80
2017-11-16T18:51:30.797Z,36.75
2017-11-16T19:14:16.120Z,39.00
2017-11-16T19:16:45.099Z,38.79
2017-11-16T19:19:14.164Z,38.57
2017-11-16T19:21:43.226Z,38.38
2017-11-16T21:32:58.422Z,41.88
2017-11-16T21:52:47.307Z,39.47
2017-11-16T21:55:16.493Z,39.52
2017-11-16T21:57:45.841Z,39.46
2017-11-16T22:00:15.504Z,39.54
2017-11-16T22:02:44.848Z,39.60
2017-11-16T22:05:14.315Z,39.60
2017-11-16T22:07:43.628Z,39.62
2017-11-16T22:10:13.258Z,39.64
2017-11-16T22:12:42.480Z,39.66
2017-11-16T22:15:11.604Z,39.71
2017-11-16T22:17:41.847Z,39.73
2017-11-16T22:20:11.305Z,39.74
2017-11-16T22:22:40.651Z,39.79
2017-11-16T22:25:09.966Z,39.80
2017-11-16T22:27:39.302Z,39.82
2017-11-16T22:30:08.558Z,39.79
2017-11-16T22:32:39.752Z,39.77
2017-11-16T22:35:09.316Z,39.74
2017-11-16T22:37:38.489Z,39.77
2017-11-16T22:40:07.692Z,39.75
2017-11-16T22:42:36.965Z,39.79
2017-11-16T22:45:06.398Z,39.77
2017-11-16T22:47:35.681Z,39.81
2017-11-16T22:50:05.055Z,39.76
2017-11-16T22:52:34.533Z,39.79
2017-11-16T22:55:03.692Z,39.67
2017-11-16T22:57:35.265Z,39.55
2017-11-16T23:00:04.569Z,39.50
2017-11-16T23:04:35.471Z,39.59
2017-11-16T23:07:04.616Z,39.52
2017-11-16T23:09:34.181Z,39.57
2017-11-16T23:12:03.559Z,39.61
2017-11-16T23:14:32.714Z,39.64
2017-11-16T23:17:03.072Z,39.75
2017-11-16T23:19:32.586Z,39.96
2017-11-16T23:22:02.315Z,40.12
2017-11-16T23:24:31.493Z,40.26
2017-11-16T23:27:00.970Z,40.38
2017-11-16T23:29:30.337Z,40.52
2017-11-16T23:32:00.242Z,40.66
2017-11-16T23:34:29.494Z,40.75
2017-11-16T23:36:58.737Z,40.82
2017-11-16T23:39:28.283Z,40.96
2017-11-16T23:41:57.477Z,41.04
2017-11-16T23:44:26.655Z,40.98
2017-11-16T23:46:55.965Z,41.03
2017-11-16T23:49:25.333Z,41.09
2017-11-16T23:51:54.683Z,41.09
2017-11-16T23:54:23.963Z,41.09
2017-11-16T23:56:53.345Z,41.14
2017-11-16T23:59:22.520Z,41.21
